createdAt,value
2022-07-25T00:01:46.887Z,76.62
2022-07-25T00:04:18.231Z,76.33
2022-07-25T00:06:48.396Z,76.35
2022-07-25T00:09:17.808Z,76.43
2022-07-25T00:11:46.973Z,76.95
2022-07-25T00:14:16.366Z,77.24
2022-07-25T00:16:45.573Z,77.33
2022-07-25T00:19:14.798Z,77.46
2022-07-25T00:21:45.378Z,77.77
2022-07-25T00:24:14.574Z,77.37
2022-07-25T00:26:43.946Z,77.90
2022-07-25T00:29:13.575Z,78.00
2022-07-25T00:31:42.786Z,77.93
2022-07-25T00:34:12.087Z,77.94
2022-07-25T00:36:41.397Z,78.04
2022-07-25T00:39:12.197Z,78.44
2022-07-25T00:41:41.851Z,78.55
2022-07-25T00:44:11.058Z,78.48
2022-07-25T00:46:40.630Z,78.45
2022-07-25T00:49:10.932Z,78.74
2022-07-25T00:51:40.195Z,78.74
2022-07-25T00:54:09.523Z,78.36
2022-07-25T00:56:40.258Z,79.27
2022-07-25T00:59:10.029Z,78.55
2022-07-25T01:01:40.385Z,79.01
2022-07-25T01:04:09.983Z,78.88
2022-07-25T01:06:39.272Z,78.67
2022-07-25T01:09:09.330Z,78.75
2022-07-25T01:11:40.705Z,78.81
2022-07-25T01:14:10.094Z,78.51
2022-07-25T01:16:41.118Z,78.86
2022-07-25T01:19:10.390Z,78.33
2022-07-25T01:21:43.381Z,78.28
2022-07-25T01:24:14.606Z,78.44
2022-07-25T01:26:44.452Z,78.67
2022-07-25T01:29:13.688Z,78.97
2022-07-25T01:31:42.820Z,78.93
2022-07-25T01:34:12.288Z,79.57
2022-07-25T01:36:42.929Z,79.97
2022-07-25T01:39:12.125Z,79.80
2022-07-25T01:41:41.273Z,80.13
2022-07-25T01:44:10.562Z,80.13
2022-07-25T01:46:39.786Z,80.13
2022-07-25T01:49:09.153Z,80.20
2022-07-25T01:51:38.438Z,80.60
2022-07-25T01:54:10.243Z,80.15
2022-07-25T01:56:45.930Z,80.68
2022-07-25T01:59:18.185Z,80.07
2022-07-25T02:01:47.611Z,79.93
2022-07-25T02:04:16.932Z,79.93
2022-07-25T02:06:46.196Z,79.91
2022-07-25T02:09:17.119Z,79.56
2022-07-25T02:11:46.441Z,79.74
2022-07-25T02:14:15.915Z,79.70
2022-07-25T02:16:45.423Z,79.43
2022-07-25T02:19:14.708Z,79.61
2022-07-25T02:21:44.300Z,79.45
2022-07-25T02:24:13.495Z,79.87
2022-07-25T02:26:44.087Z,79.70
2022-07-25T02:29:13.824Z,80.87
2022-07-25T02:31:43.122Z,81.96
2022-07-25T02:34:12.293Z,81.33
2022-07-25T02:36:41.498Z,81.43
2022-07-25T02:39:10.926Z,82.19
2022-07-25T02:41:40.478Z,82.51
2022-07-25T02:44:11.330Z,83.07
2022-07-25T02:46:40.634Z,83.84
2022-07-25T02:49:09.884Z,84.15
2022-07-25T02:51:39.095Z,84.72
2022-07-25T02:54:08.298Z,83.94
2022-07-25T02:56:37.603Z,83.79
2022-07-25T02:59:07.056Z,84.01
2022-07-25T03:01:37.717Z,85.23
2022-07-25T03:04:07.798Z,84.72
2022-07-25T03:06:37.244Z,85.14
2022-07-25T03:09:06.361Z,85.80
2022-07-25T03:11:35.927Z,85.50
2022-07-25T03:14:05.401Z,85.58
2022-07-25T03:16:36.256Z,85.39
2022-07-25T03:19:10.342Z,85.46
2022-07-25T03:21:39.684Z,85.40
2022-07-25T03:24:09.540Z,85.54
2022-07-25T03:26:39.027Z,85.41
2022-07-25T03:29:08.340Z,85.74
2022-07-25T03:31:39.207Z,85.99
2022-07-25T03:34:08.667Z,85.94
2022-07-25T03:36:38.026Z,85.83
2022-07-25T03:39:07.253Z,85.88
2022-07-25T03:41:36.392Z,85.57
2022-07-25T03:44:06.511Z,85.40
2022-07-25T03:46:35.964Z,85.43
2022-07-25T03:49:06.856Z,85.29
2022-07-25T03:51:36.167Z,85.50
2022-07-25T03:54:06.847Z,85.26
2022-07-25T03:56:43.618Z,85.37
2022-07-25T03:59:15.246Z,85.49
2022-07-25T04:01:46.154Z,85.17
2022-07-25T04:04:17.166Z,85.40
2022-07-25T04:06:47.124Z,85.21
2022-07-25T04:09:17.219Z,86.12
2022-07-25T04:11:46.437Z,85.71
2022-07-25T04:14:15.630Z,85.49
2022-07-25T04:16:44.849Z,85.92
2022-07-25T04:19:15.606Z,85.40
2022-07-25T04:21:46.528Z,85.57
2022-07-25T04:24:15.715Z,85.89
2022-07-25T04:26:44.877Z,85.56
2022-07-25T04:29:14.019Z,85.52
2022-07-25T04:31:43.753Z,85.30
2022-07-25T04:34:12.915Z,85.37
2022-07-25T04:36:43.491Z,85.66
2022-07-25T04:39:12.968Z,85.23
2022-07-25T04:41:42.200Z,85.25
2022-07-25T04:44:11.362Z,85.04
2022-07-25T04:46:41.795Z,84.97
2022-07-25T04:49:11.500Z,85.16
2022-07-25T04:51:42.311Z,84.85
2022-07-25T04:54:11.474Z,84.94
2022-07-25T04:56:40.637Z,85.03
2022-07-25T04:59:09.909Z,85.36
2022-07-25T05:01:39.078Z,85.56
2022-07-25T05:04:08.489Z,85.49
2022-07-25T05:06:38.086Z,85.59
2022-07-25T05:09:08.939Z,84.98
2022-07-25T05:11:38.081Z,85.35
2022-07-25T05:14:08.190Z,84.78
2022-07-25T05:16:37.779Z,84.49
2022-07-25T05:19:08.681Z,84.48
2022-07-25T05:21:38.343Z,84.14
2022-07-25T05:24:09.924Z,84.23
2022-07-25T05:26:39.221Z,84.23
2022-07-25T05:29:08.321Z,84.04
2022-07-25T05:31:37.786Z,83.88
2022-07-25T05:34:09.193Z,83.55
2022-07-25T05:36:38.778Z,83.43
2022-07-25T05:39:09.311Z,82.68
2022-07-25T05:41:38.931Z,82.57
2022-07-25T05:44:08.283Z,82.08
2022-07-25T05:46:38.017Z,82.30
2022-07-25T05:49:07.374Z,82.72
2022-07-25T05:51:39.775Z,83.60
2022-07-25T05:54:10.666Z,83.32
2022-07-25T05:56:39.843Z,82.59
2022-07-25T05:59:09.331Z,82.75
2022-07-25T06:01:38.594Z,82.67
2022-07-25T06:04:08.212Z,82.60
2022-07-25T06:06:38.090Z,81.52
2022-07-25T06:09:11.763Z,81.04
2022-07-25T06:11:54.507Z,80.45
2022-07-25T06:14:29.729Z,80.34
2022-07-25T06:17:00.133Z,78.91
2022-07-25T06:19:32.551Z,78.55
2022-07-25T06:22:01.805Z,78.79
2022-07-25T06:24:32.367Z,78.97
2022-07-25T06:27:01.975Z,79.55
2022-07-25T06:29:31.309Z,79.61
2022-07-25T06:32:00.618Z,78.66
2022-07-25T06:34:32.805Z,78.01
2022-07-25T06:37:02.246Z,77.09
2022-07-25T06:39:33.046Z,77.20
2022-07-25T06:42:04.181Z,76.76
2022-07-25T06:44:38.767Z,76.68
2022-07-25T06:47:12.743Z,76.50
2022-07-25T06:49:43.061Z,75.97
2022-07-25T06:52:12.662Z,75.65
2022-07-25T06:54:43.261Z,75.56
2022-07-25T06:57:12.521Z,75.40
2022-07-25T06:59:41.695Z,74.84
2022-07-25T07:02:10.830Z,74.50
2022-07-25T07:04:40.120Z,73.23
2022-07-25T07:07:09.372Z,72.04
2022-07-25T07:09:38.606Z,71.98
2022-07-25T07:12:10.943Z,72.07
2022-07-25T07:14:40.275Z,71.24
2022-07-25T07:17:09.538Z,71.26
2022-07-25T07:19:43.964Z,70.37
2022-07-25T07:22:13.540Z,70.67
2022-07-25T07:24:45.112Z,70.09
2022-07-25T07:27:19.213Z,69.79
2022-07-25T07:29:48.523Z,69.70
2022-07-25T07:32:18.045Z,69.63
2022-07-25T07:34:47.718Z,69.88
2022-07-25T07:37:16.813Z,69.44
2022-07-25T07:39:46.052Z,69.53
2022-07-25T07:42:15.497Z,69.32
2022-07-25T07:44:46.109Z,68.95
2022-07-25T07:47:15.577Z,68.60
2022-07-25T07:49:49.813Z,67.69
2022-07-25T07:52:19.571Z,67.19
2022-07-25T07:55:06.324Z,67.00
2022-07-25T07:57:35.574Z,66.51
2022-07-25T08:00:08.300Z,65.58
2022-07-25T08:02:46.331Z,65.86
2022-07-25T08:05:21.168Z,66.34
2022-07-25T08:07:51.930Z,66.62
2022-07-25T08:10:24.026Z,67.08
2022-07-25T08:12:53.408Z,67.12
2022-07-25T08:15:24.401Z,67.11
2022-07-25T08:17:55.873Z,67.80
2022-07-25T08:20:37.892Z,67.73
2022-07-25T08:23:08.037Z,68.32
2022-07-25T08:25:37.339Z,68.33
2022-07-25T08:28:07.553Z,68.05
2022-07-25T08:30:40.402Z,67.98
2022-07-25T08:33:13.541Z,67.99
2022-07-25T08:35:48.949Z,67.90
2022-07-25T08:38:18.466Z,67.93
2022-07-25T08:40:48.026Z,67.88
2022-07-25T08:43:19.226Z,68.29
2022-07-25T08:45:53.330Z,67.93
2022-07-25T08:48:25.175Z,67.36
2022-07-25T08:50:57.518Z,66.78
2022-07-25T08:53:33.009Z,66.86
2022-07-25T08:56:10.678Z,66.89
2022-07-25T08:58:44.159Z,67.98
2022-07-25T09:01:15.250Z,67.35
2022-07-25T09:03:45.238Z,67.11
2022-07-25T09:06:23.382Z,67.10
2022-07-25T09:08:58.862Z,67.28
2022-07-25T09:11:33.010Z,67.87
2022-07-25T09:14:06.030Z,68.49
2022-07-25T09:16:41.039Z,68.42
2022-07-25T09:19:16.298Z,68.54
2022-07-25T09:22:02.516Z,68.00
2022-07-25T09:24:32.567Z,68.53
2022-07-25T09:27:09.487Z,68.12
2022-07-25T09:29:42.697Z,67.84
2022-07-25T09:32:23.074Z,67.71
2022-07-25T09:34:52.849Z,67.45
2022-07-25T09:37:28.703Z,67.47
2022-07-25T09:39:58.017Z,66.78
2022-07-25T09:42:32.641Z,66.97
2022-07-25T09:45:06.643Z,66.84
2022-07-25T09:47:40.224Z,67.15
2022-07-25T09:50:10.688Z,67.12
2022-07-25T09:52:40.574Z,66.46
2022-07-25T09:55:11.198Z,66.42
2022-07-25T09:57:40.916Z,65.82
2022-07-25T10:00:17.536Z,65.26
2022-07-25T10:03:17.514Z,63.89
2022-07-25T10:06:06.779Z,59.86
2022-07-25T10:08:38.853Z,57.85
2022-07-25T10:11:19.866Z,56.58
2022-07-25T10:13:49.421Z,57.15
2022-07-25T10:16:21.867Z,57.36
2022-07-25T10:18:54.053Z,57.85
2022-07-25T10:21:27.238Z,57.64
2022-07-25T10:24:02.688Z,58.03
2022-07-25T10:26:33.673Z,59.85
2022-07-25T10:29:08.717Z,59.72
2022-07-25T10:31:49.881Z,60.15
2022-07-25T10:34:32.002Z,59.34
2022-07-25T10:37:12.468Z,58.94
2022-07-25T10:39:45.249Z,58.86
2022-07-25T10:42:16.910Z,59.31
2022-07-25T10:44:49.595Z,57.94
2022-07-25T10:47:19.758Z,56.60
2022-07-25T10:50:16.942Z,55.21
2022-07-25T10:53:00.260Z,57.29
2022-07-25T10:55:30.573Z,56.90
2022-07-25T10:58:21.611Z,57.08
2022-07-25T11:00:51.580Z,56.76
2022-07-25T11:03:22.504Z,55.91
2022-07-25T11:05:54.795Z,54.05
2022-07-25T11:08:33.495Z,52.72
2022-07-25T11:11:03.454Z,51.89
2022-07-25T11:13:37.572Z,51.93
2022-07-25T11:16:08.393Z,51.29
2022-07-25T11:18:40.646Z,51.29
2022-07-25T11:21:11.577Z,50.77
2022-07-25T11:23:42.418Z,52.85
2022-07-25T11:26:14.207Z,53.63
2022-07-25T11:28:46.549Z,54.22
2022-07-25T11:31:17.211Z,54.51
2022-07-25T11:33:49.587Z,54.82
2022-07-25T11:36:20.636Z,54.77
2022-07-25T11:38:50.971Z,54.07
2022-07-25T11:41:31.223Z,52.15
2022-07-25T11:44:00.414Z,51.71
2022-07-25T11:46:29.746Z,51.41
2022-07-25T11:49:08.912Z,50.39
2022-07-25T11:51:42.056Z,49.51
2022-07-25T11:54:13.514Z,49.76
2022-07-25T11:56:44.386Z,49.85
2022-07-25T11:59:13.696Z,50.46
2022-07-25T12:01:45.159Z,50.91
2022-07-25T12:04:17.070Z,51.43
2022-07-25T12:06:49.732Z,51.34
2022-07-25T12:09:20.897Z,51.41
2022-07-25T12:11:51.422Z,51.13
2022-07-25T12:14:20.699Z,49.42
2022-07-25T12:16:49.855Z,48.05
2022-07-25T12:19:23.785Z,46.23
2022-07-25T12:21:54.612Z,45.91
2022-07-25T12:24:23.834Z,45.43
2022-07-25T12:26:52.997Z,45.51
2022-07-25T12:29:22.173Z,46.61
2022-07-25T12:31:51.412Z,48.95
2022-07-25T12:34:20.643Z,49.91
2022-07-25T12:36:50.025Z,50.42
2022-07-25T12:39:20.679Z,51.09
2022-07-25T12:41:50.445Z,50.85
2022-07-25T12:44:19.724Z,50.11
2022-07-25T12:46:49.614Z,48.95
2022-07-25T12:49:19.149Z,47.06
2022-07-25T12:51:48.355Z,45.73
2022-07-25T12:54:22.274Z,45.37
2022-07-25T12:56:53.424Z,44.69
2022-07-25T12:59:22.869Z,44.92
2022-07-25T13:01:52.269Z,45.21
2022-07-25T13:04:21.696Z,44.88
2022-07-25T13:06:51.001Z,44.33
2022-07-25T13:09:20.206Z,43.81
2022-07-25T13:11:49.409Z,43.21
2022-07-25T13:14:20.419Z,42.86
2022-07-25T13:16:50.121Z,42.23
2022-07-25T13:19:20.044Z,42.17
2022-07-25T13:21:49.350Z,39.57
2022-07-25T13:24:18.849Z,39.56
2022-07-25T13:26:48.121Z,39.35
2022-07-25T13:29:17.500Z,39.97
2022-07-25T13:31:51.030Z,40.64
2022-07-25T13:34:20.223Z,41.10
2022-07-25T13:36:49.391Z,40.99
2022-07-25T13:39:19.346Z,41.14
2022-07-25T13:41:48.841Z,41.08
2022-07-25T13:44:18.371Z,41.10
2022-07-25T13:46:50.038Z,41.31
2022-07-25T13:49:20.777Z,41.54
2022-07-25T13:51:50.049Z,42.69
2022-07-25T13:54:19.517Z,42.16
2022-07-25T13:56:48.722Z,40.57
2022-07-25T13:59:21.515Z,39.53
2022-07-25T14:01:51.426Z,38.47
2022-07-25T14:04:22.088Z,38.39
2022-07-25T14:06:52.969Z,36.60
2022-07-25T14:09:22.819Z,36.76
2022-07-25T14:11:52.018Z,35.45
2022-07-25T14:14:21.331Z,35.51
2022-07-25T14:16:50.615Z,35.47
2022-07-25T14:19:21.505Z,36.15
2022-07-25T14:21:50.890Z,36.65
2022-07-25T14:24:20.333Z,37.01
2022-07-25T14:26:50.567Z,37.22
2022-07-25T14:29:19.860Z,37.22
2022-07-25T14:31:49.881Z,36.49
2022-07-25T14:34:19.214Z,35.78
2022-07-25T14:36:49.758Z,34.72
2022-07-25T14:39:19.232Z,35.30
2022-07-25T14:41:48.476Z,35.85
2022-07-25T14:44:17.719Z,36.58
2022-07-25T14:46:49.192Z,37.01
2022-07-25T14:49:18.855Z,37.65
2022-07-25T14:51:49.881Z,38.54
2022-07-25T14:54:19.640Z,38.47
2022-07-25T14:56:48.985Z,38.16
2022-07-25T14:59:18.185Z,38.11
2022-07-25T15:01:47.428Z,38.27
2022-07-25T15:04:19.899Z,38.69
2022-07-25T15:06:50.369Z,38.79
2022-07-25T15:09:19.877Z,38.77
2022-07-25T15:11:49.321Z,38.83
2022-07-25T15:14:19.410Z,38.41
2022-07-25T15:16:49.501Z,38.93
2022-07-25T15:19:19.437Z,39.22
2022-07-25T15:21:50.455Z,39.35
2022-07-25T15:24:19.686Z,39.45
2022-07-25T15:26:48.851Z,39.29
2022-07-25T15:29:20.764Z,39.16
2022-07-25T15:31:50.562Z,38.46
2022-07-25T15:34:19.951Z,38.82
2022-07-25T15:36:50.637Z,39.30
2022-07-25T15:39:20.711Z,39.56
2022-07-25T15:41:49.963Z,40.46
2022-07-25T15:44:19.149Z,40.56
2022-07-25T15:46:48.734Z,40.94
2022-07-25T15:49:18.073Z,40.67
2022-07-25T15:51:47.372Z,40.19
2022-07-25T15:54:18.054Z,39.65
2022-07-25T15:56:47.476Z,39.15
2022-07-25T15:59:16.713Z,38.79
2022-07-25T16:01:45.941Z,37.98
2022-07-25T16:04:15.339Z,37.68
2022-07-25T16:06:44.907Z,37.23
2022-07-25T16:09:16.239Z,37.23
2022-07-25T16:11:47.342Z,37.39
2022-07-25T16:14:17.066Z,37.60
2022-07-25T16:16:46.624Z,38.34
2022-07-25T16:19:15.851Z,38.43
2022-07-25T16:21:45.154Z,38.76
2022-07-25T16:24:14.534Z,39.68
2022-07-25T16:26:43.797Z,39.79
2022-07-25T16:29:14.450Z,40.14
2022-07-25T16:31:43.832Z,40.53
2022-07-25T16:34:13.162Z,40.94
2022-07-25T16:36:42.423Z,41.01
2022-07-25T16:39:11.577Z,41.09
2022-07-25T16:41:40.927Z,41.15
2022-07-25T16:44:10.257Z,41.80
2022-07-25T16:46:40.898Z,42.21
2022-07-25T16:49:11.547Z,42.21
2022-07-25T16:51:41.103Z,42.02
2022-07-25T16:54:10.393Z,42.47
2022-07-25T16:56:40.160Z,43.04
2022-07-25T16:59:11.362Z,43.30
2022-07-25T17:01:42.044Z,43.86
2022-07-25T17:04:11.368Z,43.87
2022-07-25T17:06:41.696Z,43.98
2022-07-25T17:09:11.862Z,44.65
2022-07-25T17:11:41.219Z,44.33
2022-07-25T17:14:10.521Z,43.61
2022-07-25T17:16:43.104Z,43.91
2022-07-25T17:19:12.639Z,44.29
2022-07-25T17:21:41.802Z,44.23
2022-07-25T17:24:11.182Z,44.98
2022-07-25T17:26:40.633Z,45.43
2022-07-25T17:29:10.653Z,46.29
2022-07-25T17:31:40.133Z,46.92
2022-07-25T17:34:10.865Z,47.67
2022-07-25T17:36:40.491Z,47.99
2022-07-25T17:39:10.339Z,48.38
2022-07-25T17:41:40.059Z,47.74
2022-07-25T17:44:12.099Z,47.44
2022-07-25T17:46:41.810Z,47.45
2022-07-25T17:49:12.959Z,47.20
2022-07-25T17:51:42.421Z,46.82
2022-07-25T17:54:12.165Z,46.74
2022-07-25T17:56:45.471Z,46.73
2022-07-25T17:59:14.758Z,47.06
2022-07-25T18:01:44.050Z,47.32
2022-07-25T18:04:14.907Z,47.62
2022-07-25T18:06:45.153Z,47.73
2022-07-25T18:09:14.338Z,47.60
2022-07-25T18:11:43.511Z,47.51
2022-07-25T18:14:12.770Z,47.64
2022-07-25T18:16:42.100Z,47.74
2022-07-25T18:19:11.414Z,48.02
2022-07-25T18:21:42.002Z,48.04
2022-07-25T18:24:11.816Z,48.31
2022-07-25T18:26:41.419Z,48.42
2022-07-25T18:29:11.397Z,49.00
2022-07-25T18:31:40.729Z,49.24
2022-07-25T18:34:10.457Z,49.20
2022-07-25T18:36:41.484Z,49.43
2022-07-25T18:39:10.966Z,49.41
2022-07-25T18:41:40.261Z,49.26
2022-07-25T18:44:09.781Z,48.76
2022-07-25T18:46:40.493Z,48.71
2022-07-25T18:49:10.647Z,48.22
2022-07-25T18:51:41.773Z,48.26
2022-07-25T18:54:11.301Z,48.70
2022-07-25T18:56:40.627Z,48.70
2022-07-25T18:59:10.260Z,48.98
2022-07-25T19:01:41.429Z,49.38
2022-07-25T19:04:10.999Z,49.47
2022-07-25T19:06:41.965Z,49.36
2022-07-25T19:09:12.022Z,49.87
2022-07-25T19:11:42.371Z,50.03
2022-07-25T19:14:12.290Z,49.68
2022-07-25T19:16:41.983Z,49.54
2022-07-25T19:19:11.773Z,49.94
2022-07-25T19:21:42.354Z,49.79
2022-07-25T19:24:11.945Z,49.76
2022-07-25T19:26:41.508Z,49.87
2022-07-25T19:29:12.271Z,50.03
2022-07-25T19:31:41.713Z,50.48
2022-07-25T19:34:11.541Z,50.39
2022-07-25T19:36:43.917Z,50.18
2022-07-25T19:39:13.815Z,50.06
2022-07-25T19:41:46.841Z,50.53
2022-07-25T19:44:16.488Z,50.95
2022-07-25T19:46:45.759Z,50.68
2022-07-25T19:49:15.051Z,50.69
2022-07-25T19:51:46.254Z,50.87
2022-07-25T19:54:15.505Z,51.19
2022-07-25T19:56:44.744Z,50.78
2022-07-25T19:59:14.188Z,50.92
2022-07-25T20:01:43.553Z,51.40
2022-07-25T20:04:13.051Z,51.46
2022-07-25T20:06:42.553Z,51.86
2022-07-25T20:09:13.200Z,51.49
2022-07-25T20:11:42.792Z,51.55
2022-07-25T20:14:12.343Z,51.36
2022-07-25T20:16:41.768Z,51.66
2022-07-25T20:19:12.429Z,51.89
2022-07-25T20:21:42.592Z,51.92
2022-07-25T20:24:17.979Z,51.87
2022-07-25T20:26:50.430Z,51.85
2022-07-25T20:29:19.766Z,52.38
2022-07-25T20:31:49.462Z,52.27
2022-07-25T20:34:19.526Z,52.43
2022-07-25T20:36:49.018Z,52.36
2022-07-25T20:39:19.753Z,52.61
2022-07-25T20:41:50.076Z,52.72
2022-07-25T20:44:19.627Z,52.93
2022-07-25T20:46:48.860Z,53.07
2022-07-25T20:49:18.145Z,53.17
2022-07-25T20:51:54.181Z,53.36
2022-07-25T20:54:25.531Z,53.00
2022-07-25T20:56:54.897Z,53.11
2022-07-25T20:59:24.083Z,53.21
2022-07-25T21:01:54.330Z,53.84
2022-07-25T21:04:24.229Z,53.35
2022-07-25T21:06:56.577Z,53.63
2022-07-25T21:09:30.961Z,54.04
2022-07-25T21:12:02.892Z,53.71
2022-07-25T21:14:32.081Z,54.10
2022-07-25T21:17:01.513Z,54.18
2022-07-25T21:19:31.002Z,54.19
2022-07-25T21:22:00.409Z,54.13
2022-07-25T21:24:31.125Z,54.25
2022-07-25T21:27:00.436Z,54.71
2022-07-25T21:29:29.607Z,54.95
2022-07-25T21:31:59.031Z,55.15
2022-07-25T21:34:28.341Z,54.89
2022-07-25T21:36:57.554Z,55.05
2022-07-25T21:39:26.889Z,55.39
2022-07-25T21:41:57.509Z,55.34
2022-07-25T21:44:27.266Z,55.46
2022-07-25T21:46:56.601Z,55.68
2022-07-25T21:49:43.583Z,55.69
2022-07-25T21:52:16.045Z,55.46
2022-07-25T21:54:45.506Z,55.44
2022-07-25T21:57:16.300Z,55.53
2022-07-25T21:59:46.558Z,55.86
2022-07-25T22:02:15.787Z,55.99
2022-07-25T22:04:45.361Z,56.52
2022-07-25T22:07:14.728Z,56.96
2022-07-25T22:09:44.238Z,57.21
2022-07-25T22:12:13.808Z,57.26
2022-07-25T22:14:44.778Z,57.21
2022-07-25T22:17:14.438Z,57.31
2022-07-25T22:19:43.726Z,56.95
2022-07-25T22:22:13.231Z,56.71
2022-07-25T22:24:46.479Z,56.83
2022-07-25T22:27:16.627Z,56.88
2022-07-25T22:29:47.692Z,56.57
2022-07-25T22:32:17.223Z,56.78
2022-07-25T22:34:47.009Z,56.78
2022-07-25T22:37:16.510Z,57.23
2022-07-25T22:39:45.832Z,57.38
2022-07-25T22:42:16.068Z,57.75
2022-07-25T22:44:47.113Z,57.86
2022-07-25T22:47:16.476Z,57.80
2022-07-25T22:49:45.710Z,58.03
2022-07-25T22:52:15.222Z,57.97
2022-07-25T22:54:44.764Z,57.98
2022-07-25T22:57:14.044Z,57.80
2022-07-25T22:59:43.451Z,57.98
2022-07-25T23:02:14.081Z,58.70
2022-07-25T23:04:43.520Z,58.63
2022-07-25T23:07:12.857Z,59.93
2022-07-25T23:09:42.377Z,59.47
2022-07-25T23:12:11.934Z,59.74
2022-07-25T23:14:41.258Z,60.40
2022-07-25T23:17:20.405Z,60.33
2022-07-25T23:19:53.978Z,60.17
2022-07-25T23:22:26.229Z,60.23
2022-07-25T23:24:55.756Z,60.44
2022-07-25T23:27:25.889Z,60.22
2022-07-25T23:29:55.461Z,60.67
2022-07-25T23:32:24.898Z,61.35
2022-07-25T23:34:55.698Z,61.56
2022-07-25T23:37:25.057Z,61.85
2022-07-25T23:39:54.591Z,61.59
2022-07-25T23:42:23.862Z,61.81
2022-07-25T23:44:53.117Z,62.51
2022-07-25T23:47:26.797Z,62.25
2022-07-25T23:50:11.687Z,62.36
2022-07-25T23:52:41.492Z,63.21
2022-07-25T23:55:11.578Z,63.15
2022-07-25T23:57:40.917Z,62.88
